createdAt,value
2022-12-31T00:00:05.927Z,99755.28
2022-12-31T00:02:33.053Z,99747.50
2022-12-31T00:04:59.977Z,99749.78
2022-12-31T00:07:27.711Z,99742.78
2022-12-31T00:09:54.936Z,99732.25
2022-12-31T00:12:21.971Z,99734.84
2022-12-31T00:14:48.959Z,99732.78
2022-12-31T00:17:16.934Z,99723.69
2022-12-31T00:19:43.945Z,99730.91
2022-12-31T00:22:10.826Z,99735.22
2022-12-31T00:24:37.695Z,99731.81
2022-12-31T00:27:04.545Z,99731.22
2022-12-31T00:30:02.451Z,99730.53
2022-12-31T00:32:32.883Z,99722.28
2022-12-31T00:34:59.675Z,99722.84
2022-12-31T00:37:29.978Z,99716.63
2022-12-31T00:39:57.468Z,99716.41
2022-12-31T00:42:24.559Z,99720.81
2022-12-31T00:44:51.418Z,99719.00
2022-12-31T00:47:18.259Z,99716.16
2022-12-31T00:49:45.358Z,99722.38
2022-12-31T00:52:12.187Z,99728.03
2022-12-31T00:54:39.867Z,99728.59
2022-12-31T00:57:06.618Z,99741.59
2022-12-31T00:59:34.454Z,99736.16
2022-12-31T01:02:01.410Z,99740.56
2022-12-31T01:04:34.957Z,99729.38
2022-12-31T01:07:01.800Z,99747.78
2022-12-31T01:09:28.879Z,99750.38
2022-12-31T01:11:57.492Z,99755.56
2022-12-31T01:14:24.406Z,99771.63
2022-12-31T01:16:57.078Z,99790.13
2022-12-31T01:19:29.569Z,99785.16
2022-12-31T01:21:59.028Z,99804.59
2022-12-31T01:24:26.975Z,99781.53
2022-12-31T01:26:53.879Z,99781.78
2022-12-31T01:32:12.410Z,99797.25
2022-12-31T01:34:39.394Z,99796.72
2022-12-31T01:37:06.253Z,99777.50
2022-12-31T01:39:33.161Z,99794.13
2022-12-31T01:41:59.860Z,99778.75
2022-12-31T01:44:27.994Z,99816.03
2022-12-31T01:46:58.832Z,99799.53
2022-12-31T01:49:31.003Z,99785.06
2022-12-31T01:52:05.712Z,99788.13
2022-12-31T01:54:43.005Z,99796.59
2022-12-31T01:57:12.887Z,99785.06
2022-12-31T01:59:41.164Z,99802.22
2022-12-31T02:02:09.994Z,99799.53
2022-12-31T02:04:38.522Z,99798.97
2022-12-31T02:07:07.847Z,99797.88
2022-12-31T02:09:40.058Z,99815.56
2022-12-31T02:12:09.357Z,99795.13
2022-12-31T02:14:50.952Z,99806.31
2022-12-31T02:17:31.263Z,99799.78
2022-12-31T02:20:22.614Z,99796.47
2022-12-31T02:23:36.571Z,99800.88
2022-12-31T02:26:35.626Z,99806.66
2022-12-31T02:29:16.778Z,99806.06
2022-12-31T02:32:12.649Z,99805.50
2022-12-31T02:35:09.389Z,99801.44
2022-12-31T02:37:39.935Z,99806.84
2022-12-31T02:40:12.076Z,99820.63
2022-12-31T02:42:43.090Z,99815.22
2022-12-31T02:45:15.228Z,99806.97
2022-12-31T02:48:19.939Z,99808.91
2022-12-31T02:51:30.067Z,99821.19
2022-12-31T02:53:58.969Z,99827.88
2022-12-31T02:56:58.320Z,99826.16
2022-12-31T02:59:28.269Z,99826.72
2022-12-31T03:02:11.863Z,99824.47
2022-12-31T03:04:41.567Z,99829.31
2022-12-31T03:07:11.667Z,99828.63
2022-12-31T03:09:39.074Z,99833.50
2022-12-31T03:12:08.990Z,99820.84
2022-12-31T03:14:36.912Z,99829.72
2022-12-31T03:17:05.594Z,99842.72
2022-12-31T03:19:32.919Z,99837.06
2022-12-31T03:21:59.651Z,99846.13
2022-12-31T03:24:26.939Z,99843.06
2022-12-31T03:26:53.673Z,99850.84
2022-12-31T03:29:22.034Z,99857.41
2022-12-31T03:31:49.535Z,99866.22
2022-12-31T03:34:16.271Z,99855.59
2022-12-31T03:36:43.521Z,99857.19
2022-12-31T03:39:10.403Z,99863.72
2022-12-31T03:41:37.132Z,99857.50
2022-12-31T03:44:05.994Z,99860.66
2022-12-31T03:46:32.688Z,99863.25
2022-12-31T03:48:59.525Z,99870.84
2022-12-31T03:51:26.623Z,99860.31
2022-12-31T03:53:53.499Z,99872.78
2022-12-31T03:56:20.357Z,99872.06
2022-12-31T03:58:48.020Z,99877.81
2022-12-31T04:01:15.544Z,99879.63
2022-12-31T04:03:44.038Z,99875.22
2022-12-31T04:06:11.483Z,99876.03
2022-12-31T04:08:42.017Z,99867.66
2022-12-31T04:11:09.635Z,99879.53
2022-12-31T04:13:37.945Z,99871.50
2022-12-31T04:16:05.789Z,99890.97
2022-12-31T04:18:32.980Z,99891.28
2022-12-31T04:21:04.144Z,99895.66
2022-12-31T04:23:32.060Z,99902.47
2022-12-31T04:25:58.941Z,99909.94
2022-12-31T04:28:26.467Z,99902.91
2022-12-31T04:30:53.319Z,99917.28
2022-12-31T04:33:20.236Z,99914.56
2022-12-31T04:35:47.123Z,99927.31
2022-12-31T04:38:14.208Z,99913.75
2022-12-31T04:40:40.987Z,99920.00
2022-12-31T04:43:09.310Z,99920.97
2022-12-31T04:45:36.261Z,99921.56
2022-12-31T04:48:03.633Z,99916.94
2022-12-31T04:50:36.027Z,99914.22
2022-12-31T04:53:02.881Z,99919.75
2022-12-31T04:55:29.612Z,99924.41
2022-12-31T04:57:58.245Z,99914.00
2022-12-31T05:00:25.023Z,99913.53
2022-12-31T05:02:55.476Z,99911.53
2022-12-31T05:05:22.526Z,99910.94
2022-12-31T05:07:49.261Z,99910.25
2022-12-31T05:10:19.571Z,99917.50
2022-12-31T05:13:12.106Z,99918.63
2022-12-31T05:15:42.105Z,99923.94
2022-12-31T05:18:08.980Z,99926.88
2022-12-31T05:21:01.922Z,99925.75
2022-12-31T05:23:29.821Z,99926.41
2022-12-31T05:25:56.756Z,99935.44
2022-12-31T05:28:28.068Z,99950.03
2022-12-31T05:30:58.558Z,99931.84
2022-12-31T05:33:25.306Z,99938.63
2022-12-31T05:35:52.943Z,99938.03
2022-12-31T05:38:19.643Z,99942.00
2022-12-31T05:40:47.536Z,99946.41
2022-12-31T05:43:15.054Z,99947.19
2022-12-31T05:45:42.437Z,99949.00
2022-12-31T05:48:15.936Z,99943.38
2022-12-31T05:50:43.453Z,99945.19
2022-12-31T05:53:10.348Z,99936.69
2022-12-31T05:55:37.471Z,99949.00
2022-12-31T05:58:06.983Z,99956.22
2022-12-31T06:00:34.425Z,99940.19
2022-12-31T06:03:01.388Z,99950.38
2022-12-31T06:05:28.439Z,99945.97
2022-12-31T06:07:59.067Z,99952.16
2022-12-31T06:10:27.489Z,99939.63
2022-12-31T06:12:54.319Z,99951.84
2022-12-31T06:15:21.428Z,99943.25
2022-12-31T06:17:49.137Z,99942.22
2022-12-31T06:20:15.882Z,99945.38
2022-12-31T06:22:43.473Z,99943.34
2022-12-31T06:25:11.159Z,99943.00
2022-12-31T06:27:38.060Z,99939.16
2022-12-31T06:30:05.383Z,99946.19
2022-12-31T06:32:32.472Z,99943.59
2022-12-31T06:35:23.994Z,99945.94
2022-12-31T06:40:46.033Z,99952.25
2022-12-31T06:43:13.414Z,99957.44
2022-12-31T06:45:40.645Z,99951.00
2022-12-31T06:48:07.752Z,99964.56
2022-12-31T06:50:34.943Z,99971.34
2022-12-31T06:53:01.772Z,99964.56
2022-12-31T06:55:28.966Z,99970.91
2022-12-31T06:57:56.276Z,99977.34
2022-12-31T07:00:23.741Z,99982.28
2022-12-31T07:06:23.937Z,99983.41
2022-12-31T07:08:59.665Z,99978.44
2022-12-31T07:11:36.987Z,99974.81
2022-12-31T07:14:13.393Z,99981.28
2022-12-31T07:17:05.680Z,99985.00
2022-12-31T07:19:57.818Z,99999.25
2022-12-31T07:22:26.050Z,99989.97
2022-12-31T07:24:53.126Z,100003.53
2022-12-31T07:27:28.968Z,100001.28
2022-12-31T07:29:58.435Z,100007.94
2022-12-31T07:32:25.517Z,100005.69
2022-12-31T07:35:12.788Z,100012.91
2022-12-31T07:37:57.603Z,100017.31
2022-12-31T07:40:36.000Z,100022.63
2022-12-31T07:43:26.600Z,100023.41
2022-12-31T07:46:12.984Z,100025.78
2022-12-31T07:49:10.091Z,100020.59
2022-12-31T07:51:39.943Z,100029.75
2022-12-31T07:54:11.948Z,100025.34
2022-12-31T07:56:46.987Z,100017.09
2022-12-31T07:59:47.867Z,100019.19
2022-12-31T08:06:12.063Z,100008.34
2022-12-31T08:08:58.801Z,100020.66
2022-12-31T08:11:55.043Z,100017.59
2022-12-31T08:14:24.223Z,100019.72
2022-12-31T08:16:51.346Z,100022.66
2022-12-31T08:19:26.144Z,100026.88
2022-12-31T08:22:26.474Z,100027.19
2022-12-31T08:25:08.046Z,100034.50
2022-12-31T08:28:09.108Z,100042.44
2022-12-31T08:31:04.917Z,100032.03
2022-12-31T08:33:43.745Z,100040.16
2022-12-31T08:36:45.008Z,100041.19
2022-12-31T08:39:55.947Z,100033.59
2022-12-31T08:43:15.963Z,100037.44
2022-12-31T08:45:49.721Z,100040.84
2022-12-31T08:48:33.031Z,100041.72
2022-12-31T08:51:03.648Z,100047.59
2022-12-31T08:53:33.721Z,100049.97
2022-12-31T08:56:34.799Z,100043.50
2022-12-31T08:59:17.976Z,100059.44
2022-12-31T09:01:54.615Z,100047.00
2022-12-31T09:04:46.391Z,100058.75
2022-12-31T09:07:22.034Z,100056.50
2022-12-31T09:10:32.544Z,100053.75
2022-12-31T09:13:35.943Z,100026.69
2022-12-31T09:16:16.373Z,100023.84
2022-12-31T09:18:43.892Z,100043.16
2022-12-31T09:21:16.013Z,100034.13
2022-12-31T09:23:43.663Z,100037.50
2022-12-31T09:26:52.036Z,100069.84
2022-12-31T09:29:55.123Z,100045.63
2022-12-31T09:33:01.370Z,100055.38
2022-12-31T09:35:52.603Z,100054.56
2022-12-31T09:38:28.958Z,100060.34
2022-12-31T09:41:12.964Z,100061.91
2022-12-31T09:44:18.927Z,100060.91
2022-12-31T09:47:18.726Z,100057.25
2022-12-31T09:53:28.044Z,100050.25
2022-12-31T09:56:13.020Z,100054.97
2022-12-31T09:58:58.391Z,100054.72
2022-12-31T10:01:53.443Z,100062.09
2022-12-31T10:08:07.441Z,100038.75
2022-12-31T10:10:55.999Z,100046.38
2022-12-31T10:13:27.174Z,100050.91
2022-12-31T10:16:02.471Z,100035.28
2022-12-31T10:18:53.803Z,100046.47
2022-12-31T10:21:37.043Z,100041.03
2022-12-31T10:24:13.333Z,100033.22
2022-12-31T10:26:53.535Z,100036.38
2022-12-31T10:29:25.637Z,100039.53
2022-12-31T10:32:31.178Z,100019.81
2022-12-31T10:35:28.386Z,100027.63
2022-12-31T10:38:16.082Z,100027.13
2022-12-31T10:41:13.388Z,100021.69
2022-12-31T10:44:01.944Z,100008.44
2022-12-31T10:47:08.325Z,100014.66
2022-12-31T10:53:14.895Z,100019.72
2022-12-31T10:55:54.274Z,100010.88
2022-12-31T10:58:36.674Z,100022.38
2022-12-31T11:01:17.167Z,100016.47
2022-12-31T11:04:30.133Z,100016.00
2022-12-31T11:07:45.504Z,100000.69
2022-12-31T11:10:18.961Z,100014.56
2022-12-31T11:13:24.050Z,99997.66
2022-12-31T11:16:19.301Z,100008.41
2022-12-31T11:19:21.523Z,100018.34
2022-12-31T11:22:10.986Z,100007.44
2022-12-31T11:24:56.344Z,100004.34
2022-12-31T11:31:14.981Z,99996.41
2022-12-31T11:34:15.255Z,99978.22
2022-12-31T11:37:10.874Z,99976.69
2022-12-31T11:39:46.605Z,99971.00
2022-12-31T11:42:40.874Z,99964.25
2022-12-31T11:45:11.203Z,99957.03
2022-12-31T11:51:01.979Z,99948.38
2022-12-31T11:53:50.047Z,99944.25
2022-12-31T11:56:19.697Z,99950.81
2022-12-31T11:58:50.916Z,99950.59
2022-12-31T12:01:24.725Z,99943.28
2022-12-31T12:03:54.001Z,99947.22
2022-12-31T12:06:27.385Z,99946.19
2022-12-31T12:09:00.950Z,99968.91
2022-12-31T12:11:32.945Z,99964.50
2022-12-31T12:14:02.979Z,99966.63
2022-12-31T12:16:29.953Z,99962.97
2022-12-31T12:19:06.970Z,99961.44
2022-12-31T12:21:34.594Z,99958.84
2022-12-31T12:24:30.891Z,99939.53
2022-12-31T12:26:58.158Z,99939.53
2022-12-31T12:29:32.972Z,99944.25
2022-12-31T12:32:02.202Z,99945.59
2022-12-31T12:34:37.955Z,99960.00
2022-12-31T12:37:25.792Z,99958.47
2022-12-31T12:39:58.995Z,99961.63
2022-12-31T12:42:26.823Z,99962.72
2022-12-31T12:45:05.266Z,99961.66
2022-12-31T12:47:33.544Z,99962.72
2022-12-31T12:50:01.114Z,99954.41
2022-12-31T12:52:41.845Z,99955.19
2022-12-31T12:55:20.815Z,99949.25
2022-12-31T12:58:00.175Z,99955.53
2022-12-31T13:00:46.013Z,99954.50
2022-12-31T13:03:16.277Z,99951.38
2022-12-31T13:06:02.921Z,99946.69
2022-12-31T13:09:00.436Z,99944.13
2022-12-31T13:11:41.092Z,99941.22
2022-12-31T13:14:25.955Z,99949.34
2022-12-31T13:17:31.912Z,99954.34
2022-12-31T13:20:08.934Z,99961.94
2022-12-31T13:23:08.892Z,99971.09
2022-12-31T13:26:00.579Z,99968.47
2022-12-31T13:28:28.973Z,99964.06
2022-12-31T13:31:06.542Z,99963.03
2022-12-31T13:33:42.910Z,99956.78
2022-12-31T13:36:21.234Z,99965.41
2022-12-31T13:42:28.950Z,99972.47
2022-12-31T13:45:04.166Z,99968.31
2022-12-31T13:47:44.872Z,99966.47
2022-12-31T13:50:19.595Z,99959.41
2022-12-31T13:52:51.926Z,99969.09
2022-12-31T13:55:19.455Z,99979.81
2022-12-31T13:57:52.792Z,99982.94
2022-12-31T14:00:19.566Z,99976.16
2022-12-31T14:02:53.111Z,99982.72
2022-12-31T14:05:31.445Z,99979.31
2022-12-31T14:10:53.447Z,99986.38
2022-12-31T14:13:40.999Z,99982.94
2022-12-31T14:16:38.329Z,99977.22
2022-12-31T14:19:13.900Z,99984.00
2022-12-31T14:21:52.770Z,99991.84
2022-12-31T14:24:44.142Z,99989.72
2022-12-31T14:30:21.281Z,99986.63
2022-12-31T14:33:26.113Z,99990.78
2022-12-31T14:39:18.981Z,99994.38
2022-12-31T14:42:16.202Z,99987.53
2022-12-31T14:45:17.014Z,99992.22
2022-12-31T14:48:22.280Z,99997.16
2022-12-31T14:50:51.577Z,99996.09
2022-12-31T14:53:24.399Z,99997.69
2022-12-31T14:56:30.224Z,99994.03
2022-12-31T14:59:00.800Z,99995.09
2022-12-31T15:01:29.059Z,99997.41
2022-12-31T15:03:57.741Z,99997.34
2022-12-31T15:06:45.929Z,99997.13
2022-12-31T15:09:50.594Z,99989.22
2022-12-31T15:16:11.947Z,99995.22
2022-12-31T15:18:48.245Z,99984.69
2022-12-31T15:21:27.992Z,99989.94
2022-12-31T15:24:00.902Z,99992.31
2022-12-31T15:26:32.334Z,99997.25
2022-12-31T15:29:39.450Z,100001.91
2022-12-31T15:32:18.703Z,100000.84
2022-12-31T15:34:46.814Z,99999.78
2022-12-31T15:37:35.952Z,100000.31
2022-12-31T15:40:19.593Z,99986.22
2022-12-31T15:43:33.031Z,99989.56
2022-12-31T15:46:02.049Z,99982.03
2022-12-31T15:48:43.236Z,99988.56
2022-12-31T15:51:33.304Z,99990.16
2022-12-31T15:54:03.093Z,99981.78
2022-12-31T15:56:41.237Z,99988.25
2022-12-31T15:59:15.933Z,99992.97
2022-12-31T16:01:44.894Z,99989.28
2022-12-31T16:04:18.015Z,99997.84
2022-12-31T16:06:50.617Z,99989.19
2022-12-31T16:09:25.882Z,99989.22
2022-12-31T16:11:55.288Z,99991.31
2022-12-31T16:14:46.418Z,99993.06
2022-12-31T16:17:30.053Z,100000.13
2022-12-31T16:19:58.012Z,100000.34
2022-12-31T16:22:26.569Z,100003.78
2022-12-31T16:27:46.326Z,100016.00
2022-12-31T16:30:23.040Z,100008.47
2022-12-31T16:32:51.131Z,100011.91
2022-12-31T16:35:28.091Z,100021.50
2022-12-31T16:38:13.483Z,100017.06
2022-12-31T16:40:43.425Z,100024.66
2022-12-31T16:43:29.033Z,100029.31
2022-12-31T16:46:11.958Z,100031.16
2022-12-31T16:48:39.572Z,100034.28
2022-12-31T16:51:07.316Z,100040.50
2022-12-31T16:53:37.938Z,100036.84
2022-12-31T16:56:09.900Z,100031.34
2022-12-31T16:58:44.178Z,100029.81
2022-12-31T17:01:26.184Z,100025.63
2022-12-31T17:04:09.727Z,100023.25
2022-12-31T17:07:30.246Z,100033.41
2022-12-31T17:10:07.242Z,100032.31
2022-12-31T17:13:24.968Z,100032.31
2022-12-31T17:15:56.628Z,100030.75
2022-12-31T17:18:30.899Z,100021.34
2022-12-31T17:21:11.174Z,100017.13
2022-12-31T17:23:40.931Z,100006.75
2022-12-31T17:26:13.650Z,100013.25
2022-12-31T17:28:57.182Z,100004.56
2022-12-31T17:31:36.617Z,100000.66
2022-12-31T17:34:14.003Z,99999.91
2022-12-31T17:37:02.720Z,99993.72
2022-12-31T17:40:24.557Z,100006.81
2022-12-31T17:42:49.327Z,99998.94
2022-12-31T17:45:22.010Z,100006.75
2022-12-31T17:47:51.568Z,100003.56
2022-12-31T17:50:19.822Z,100000.88
2022-12-31T17:52:47.660Z,100004.22
2022-12-31T17:55:16.238Z,100009.94
2022-12-31T17:57:52.731Z,100005.69
2022-12-31T18:00:25.006Z,99997.06
2022-12-31T18:02:53.469Z,100010.59
2022-12-31T18:05:22.953Z,100003.22
2022-12-31T18:07:50.867Z,100004.28
2022-12-31T18:10:22.682Z,100008.13
2022-12-31T18:12:49.937Z,100009.94
2022-12-31T18:15:23.075Z,100008.28
2022-12-31T18:17:51.361Z,100015.50
2022-12-31T18:20:18.699Z,100008.72
2022-12-31T18:28:08.828Z,100003.47
2022-12-31T18:31:00.868Z,100014.13
2022-12-31T18:33:27.851Z,100013.63
2022-12-31T18:36:08.882Z,100003.38
2022-12-31T18:38:36.867Z,100008.38
2022-12-31T18:41:04.438Z,100000.28
2022-12-31T18:43:34.358Z,100008.53
2022-12-31T18:46:01.160Z,100004.91
2022-12-31T18:48:29.993Z,100010.09
2022-12-31T18:50:56.793Z,100009.50
2022-12-31T18:53:24.312Z,100018.19
2022-12-31T18:55:57.163Z,100019.44
2022-12-31T18:58:24.715Z,100019.44
2022-12-31T19:00:52.951Z,100014.97
2022-12-31T19:03:23.821Z,100010.53
2022-12-31T19:05:52.275Z,100008.88
2022-12-31T19:08:23.874Z,100005.69
2022-12-31T19:10:52.206Z,100012.50
2022-12-31T19:13:20.822Z,100015.44
2022-12-31T19:15:50.990Z,100004.91
2022-12-31T19:18:18.130Z,100003.03
2022-12-31T19:20:45.851Z,100002.78
2022-12-31T19:23:15.474Z,99991.34
2022-12-31T19:25:47.963Z,100009.75
2022-12-31T19:28:18.548Z,99997.78
2022-12-31T19:30:45.769Z,100001.84
2022-12-31T19:33:13.981Z,100001.31
2022-12-31T19:35:41.749Z,100001.41
2022-12-31T19:38:27.845Z,100006.84
2022-12-31T19:40:55.630Z,100005.28
2022-12-31T19:43:24.071Z,100004.72
2022-12-31T19:45:51.946Z,99999.03
2022-12-31T19:48:47.013Z,100001.91
2022-12-31T19:51:19.801Z,99996.38
2022-12-31T19:53:49.019Z,99995.44
2022-12-31T19:56:19.611Z,100000.94
2022-12-31T19:58:47.923Z,99998.81
2022-12-31T20:01:23.025Z,99994.53
2022-12-31T20:03:50.618Z,99985.16
2022-12-31T20:06:22.898Z,99988.72
2022-12-31T20:08:49.724Z,99985.94
2022-12-31T20:11:21.932Z,99987.78
2022-12-31T20:13:51.628Z,99987.03
2022-12-31T20:16:20.950Z,99992.25
2022-12-31T20:18:49.410Z,99995.63
2022-12-31T20:21:41.898Z,99987.34
2022-12-31T20:24:12.375Z,99989.44
2022-12-31T20:26:40.434Z,99994.63
2022-12-31T20:29:07.255Z,99997.22
2022-12-31T20:31:59.231Z,99990.81
2022-12-31T20:34:26.147Z,99997.06
2022-12-31T20:36:53.488Z,99985.88
2022-12-31T20:39:20.903Z,99988.00
2022-12-31T20:41:49.936Z,99988.47
2022-12-31T20:44:21.896Z,99994.84
2022-12-31T20:46:49.511Z,100001.16
2022-12-31T20:49:26.968Z,99985.59
2022-12-31T20:52:04.547Z,99986.63
2022-12-31T20:54:34.147Z,99992.94
2022-12-31T20:57:01.087Z,99993.47
2022-12-31T20:59:27.983Z,99985.66
2022-12-31T21:04:46.407Z,99986.44
2022-12-31T21:07:15.382Z,99992.22
2022-12-31T21:09:42.144Z,100001.19
2022-12-31T21:12:11.621Z,100004.47
2022-12-31T21:14:44.814Z,100003.00
2022-12-31T21:17:12.244Z,100004.13
2022-12-31T21:19:39.551Z,99998.22
2022-12-31T21:22:06.445Z,100002.63
2022-12-31T21:24:34.227Z,100007.81
2022-12-31T21:27:02.483Z,100003.00
2022-12-31T21:29:34.370Z,100002.19
2022-12-31T21:32:01.777Z,99995.75
2022-12-31T21:34:28.580Z,100006.06
2022-12-31T21:36:55.810Z,99997.47
2022-12-31T21:39:23.142Z,100010.06
2022-12-31T21:41:49.997Z,100005.19
2022-12-31T21:44:18.940Z,100002.25
2022-12-31T21:47:24.777Z,100009.91
2022-12-31T21:49:37.559Z,100003.28
2022-12-31T21:52:05.689Z,100010.66
2022-12-31T21:54:32.943Z,100005.13
2022-12-31T21:57:00.399Z,100001.50
2022-12-31T21:59:31.311Z,99993.94
2022-12-31T22:02:00.305Z,99999.69
2022-12-31T22:05:00.773Z,99998.09
2022-12-31T22:07:16.130Z,99990.28
2022-12-31T22:09:42.944Z,99988.50
2022-12-31T22:12:09.813Z,99986.97
2022-12-31T22:14:38.952Z,99992.47
2022-12-31T22:17:07.392Z,99983.31
2022-12-31T22:19:54.690Z,99984.78
2022-12-31T22:22:24.981Z,99981.75
2022-12-31T22:24:52.017Z,99985.97
2022-12-31T22:28:04.416Z,99982.94
2022-12-31T22:30:34.738Z,99987.91
2022-12-31T22:33:02.005Z,99989.34
2022-12-31T22:35:29.026Z,99992.53
2022-12-31T22:37:59.021Z,99990.00
2022-12-31T22:40:27.311Z,99993.31
2022-12-31T22:42:55.312Z,99990.94
2022-12-31T22:45:22.464Z,99982.47
2022-12-31T22:47:49.464Z,99988.00
2022-12-31T22:50:16.503Z,99982.13
2022-12-31T22:52:44.028Z,100000.00
2022-12-31T22:55:10.812Z,99988.94
2022-12-31T22:57:41.985Z,99982.63
2022-12-31T23:00:13.183Z,99987.00
2022-12-31T23:02:42.113Z,99983.53
2022-12-31T23:05:15.368Z,99982.28
2022-12-31T23:08:18.643Z,99975.63
2022-12-31T23:10:52.453Z,99985.56
2022-12-31T23:13:21.319Z,99983.91
2022-12-31T23:15:48.158Z,99989.19
2022-12-31T23:18:15.294Z,99988.59
2022-12-31T23:20:42.127Z,99996.88
2022-12-31T23:23:17.320Z,99995.41
2022-12-31T23:25:50.093Z,100000.59
2022-12-31T23:31:19.110Z,100000.25
2022-12-31T23:33:45.897Z,100005.47
2022-12-31T23:36:13.963Z,100005.94
2022-12-31T23:38:40.848Z,100004.34
2022-12-31T23:44:06.958Z,100004.44
2022-12-31T23:46:33.756Z,100017.22
2022-12-31T23:49:02.918Z,100016.00
2022-12-31T23:51:29.961Z,100012.25
2022-12-31T23:53:56.828Z,100002.19
2022-12-31T23:56:24.213Z,99991.59
2022-12-31T23:58:58.042Z,99989.34
